createdAt,value
2017-12-06T00:01:02.838Z,73.90
2017-12-06T00:03:30.473Z,74.10
2017-12-06T00:05:58.745Z,74.00
2017-12-06T00:08:26.268Z,74.00
2017-12-06T00:10:53.804Z,74.00
2017-12-06T00:13:27.020Z,73.80
2017-12-06T00:15:54.537Z,73.90
2017-12-06T00:18:22.047Z,73.80
2017-12-06T00:20:49.562Z,73.80
2017-12-06T00:23:17.131Z,73.80
2017-12-06T00:25:44.637Z,73.50
2017-12-06T00:28:12.925Z,73.50
2017-12-06T00:30:40.462Z,73.40
2017-12-06T00:33:08.732Z,73.30
2017-12-06T00:35:36.999Z,73.40
2017-12-06T00:38:04.529Z,73.40
2017-12-06T00:40:32.035Z,73.50
2017-12-06T00:43:00.308Z,73.90
2017-12-06T00:45:28.596Z,73.70
2017-12-06T00:47:56.101Z,73.70
2017-12-06T00:50:23.607Z,73.90
2017-12-06T00:52:51.135Z,74.10
2017-12-06T00:55:18.629Z,73.90
2017-12-06T00:57:46.179Z,74.00
2017-12-06T01:00:13.686Z,74.00
2017-12-06T01:02:41.195Z,73.80
2017-12-06T01:05:08.704Z,73.90
2017-12-06T01:07:36.232Z,73.90
2017-12-06T01:10:03.742Z,73.90
2017-12-06T01:12:32.135Z,73.90
2017-12-06T01:14:59.653Z,73.70
2017-12-06T01:17:27.170Z,73.70
2017-12-06T01:19:54.698Z,74.10
2017-12-06T01:22:22.961Z,74.00
2017-12-06T01:24:50.484Z,74.00
2017-12-06T01:27:18.000Z,73.70
2017-12-06T01:29:45.501Z,74.00
2017-12-06T01:32:13.000Z,73.80
2017-12-06T01:34:41.292Z,74.10
2017-12-06T01:37:08.801Z,74.20
2017-12-06T01:39:36.309Z,74.20
2017-12-06T01:42:03.939Z,74.00
2017-12-06T01:44:32.224Z,73.60
2017-12-06T01:47:00.508Z,73.80
2017-12-06T01:49:28.791Z,73.40
2017-12-06T01:51:56.301Z,73.40
2017-12-06T01:54:23.808Z,72.00
2017-12-06T01:56:51.327Z,72.50
2017-12-06T01:59:19.625Z,73.00
2017-12-06T02:01:47.897Z,73.30
2017-12-06T02:04:16.286Z,73.20
2017-12-06T02:06:43.791Z,73.20
2017-12-06T02:09:11.289Z,73.10
2017-12-06T02:11:39.674Z,73.40
2017-12-06T02:14:07.944Z,73.30
2017-12-06T02:16:36.220Z,73.00
2017-12-06T02:19:04.507Z,73.10
2017-12-06T02:21:32.026Z,73.00
2017-12-06T02:23:59.533Z,73.00
2017-12-06T02:26:27.147Z,73.40
2017-12-06T02:28:54.650Z,73.00
2017-12-06T02:31:22.160Z,73.50
2017-12-06T02:33:49.677Z,73.80
2017-12-06T02:36:17.176Z,73.90
2017-12-06T02:38:44.677Z,73.60
2017-12-06T02:41:24.198Z,73.60
2017-12-06T02:44:03.537Z,73.70
2017-12-06T02:46:31.139Z,73.70
2017-12-06T02:48:58.589Z,73.90
2017-12-06T02:51:26.092Z,73.90
2017-12-06T02:53:54.385Z,74.50
2017-12-06T02:56:21.896Z,74.50
2017-12-06T02:58:49.415Z,74.40
2017-12-06T03:01:16.912Z,74.60
2017-12-06T03:03:44.413Z,74.80
2017-12-06T03:06:11.967Z,74.80
2017-12-06T03:08:39.469Z,74.80
2017-12-06T03:11:06.969Z,74.80
2017-12-06T03:13:34.595Z,74.60
2017-12-06T03:16:02.118Z,74.70
2017-12-06T03:18:29.640Z,74.80
2017-12-06T03:20:57.943Z,74.90
2017-12-06T03:23:25.446Z,74.90
2017-12-06T03:25:52.956Z,74.80
2017-12-06T03:28:20.585Z,74.70
2017-12-06T03:30:48.865Z,74.50
2017-12-06T03:33:16.385Z,74.50
2017-12-06T03:35:43.921Z,74.50
2017-12-06T03:38:11.429Z,75.00
2017-12-06T03:40:39.705Z,73.90
2017-12-06T03:43:07.998Z,73.70
2017-12-06T03:45:35.503Z,73.70
2017-12-06T03:48:03.803Z,73.10
2017-12-06T03:50:32.073Z,73.20
2017-12-06T03:53:00.366Z,73.20
2017-12-06T03:55:28.756Z,73.10
2017-12-06T03:57:56.264Z,73.10
2017-12-06T04:00:23.778Z,73.20
2017-12-06T04:02:51.309Z,73.20
2017-12-06T04:05:19.586Z,72.90
2017-12-06T04:07:47.853Z,72.80
2017-12-06T04:10:15.381Z,72.70
2017-12-06T04:12:43.663Z,72.80
2017-12-06T04:15:11.163Z,72.80
2017-12-06T04:17:38.678Z,72.70
2017-12-06T04:20:06.181Z,72.70
2017-12-06T04:22:33.756Z,72.80
2017-12-06T04:25:01.330Z,72.80
2017-12-06T04:27:28.834Z,72.80
2017-12-06T04:29:57.103Z,72.60
2017-12-06T04:32:25.398Z,72.70
2017-12-06T04:34:52.904Z,72.70
2017-12-06T04:37:20.411Z,72.50
2017-12-06T04:39:47.927Z,72.40
2017-12-06T04:42:15.432Z,72.50
2017-12-06T04:44:42.948Z,72.20
2017-12-06T04:47:10.500Z,72.10
2017-12-06T04:49:38.013Z,72.50
2017-12-06T04:52:05.551Z,72.80
2017-12-06T04:54:33.191Z,72.70
2017-12-06T04:57:01.468Z,72.60
2017-12-06T04:59:29.765Z,72.50
2017-12-06T05:01:57.306Z,72.50
2017-12-06T05:04:25.586Z,72.20
2017-12-06T05:06:53.895Z,72.30
2017-12-06T05:09:21.433Z,72.30
2017-12-06T05:11:48.949Z,71.90
2017-12-06T05:14:16.494Z,71.80
2017-12-06T05:16:44.040Z,72.30
2017-12-06T05:19:11.554Z,72.00
2017-12-06T05:21:39.100Z,72.00
2017-12-06T05:24:07.373Z,72.10
2017-12-06T05:26:35.688Z,72.20
2017-12-06T05:29:03.190Z,72.20
2017-12-06T05:31:30.702Z,71.90
2017-12-06T05:33:58.229Z,72.10
2017-12-06T05:36:25.754Z,71.70
2017-12-06T05:38:53.299Z,72.10
2017-12-06T05:41:20.806Z,72.00
2017-12-06T05:43:48.359Z,71.80
2017-12-06T05:46:15.889Z,71.60
2017-12-06T05:48:43.392Z,71.70
2017-12-06T05:51:10.933Z,72.10
2017-12-06T05:53:38.442Z,71.90
2017-12-06T05:56:05.982Z,71.80
2017-12-06T05:58:33.496Z,71.70
2017-12-06T06:01:01.039Z,71.40
2017-12-06T06:03:29.342Z,71.70
2017-12-06T06:05:56.858Z,71.70
2017-12-06T06:08:24.384Z,71.00
2017-12-06T06:10:51.887Z,71.20
2017-12-06T06:13:20.212Z,71.40
2017-12-06T06:15:47.716Z,71.40
2017-12-06T06:18:16.005Z,71.30
2017-12-06T06:20:43.544Z,71.30
2017-12-06T06:23:11.096Z,70.60
2017-12-06T06:25:38.681Z,71.20
2017-12-06T06:28:06.201Z,71.30
2017-12-06T06:30:33.741Z,71.20
2017-12-06T06:33:02.047Z,70.90
2017-12-06T06:35:29.586Z,70.90
2017-12-06T06:37:57.897Z,71.10
2017-12-06T06:40:30.078Z,70.90
2017-12-06T06:43:04.567Z,70.90
2017-12-06T06:48:23.313Z,71.20
2017-12-06T06:50:51.589Z,71.00
2017-12-06T06:53:19.858Z,71.10
2017-12-06T06:55:48.137Z,71.40
2017-12-06T06:58:16.406Z,70.60
2017-12-06T07:00:44.676Z,71.00
2017-12-06T07:03:12.300Z,71.00
2017-12-06T07:05:39.808Z,70.80
2017-12-06T07:08:08.080Z,70.90
2017-12-06T07:10:36.387Z,71.10
2017-12-06T07:13:04.279Z,71.10
2017-12-06T07:15:31.799Z,71.10
2017-12-06T07:17:59.334Z,70.90
2017-12-06T07:20:27.610Z,70.90
2017-12-06T07:22:55.885Z,70.60
2017-12-06T07:25:24.284Z,70.60
2017-12-06T07:27:51.781Z,70.60
2017-12-06T07:30:19.289Z,70.50
2017-12-06T07:32:46.832Z,70.50
2017-12-06T07:35:15.101Z,71.00
2017-12-06T07:37:42.610Z,71.00
2017-12-06T07:40:10.144Z,71.30
2017-12-06T07:42:37.703Z,71.70
2017-12-06T07:45:05.941Z,71.10
2017-12-06T07:47:34.239Z,71.10
2017-12-06T07:50:01.740Z,71.10
2017-12-06T07:52:29.241Z,70.40
2017-12-06T07:54:57.631Z,70.40
2017-12-06T07:57:25.145Z,70.40
2017-12-06T07:59:52.662Z,70.40
2017-12-06T08:02:20.190Z,70.30
2017-12-06T08:04:48.470Z,69.50
2017-12-06T08:07:15.985Z,69.40
2017-12-06T08:09:43.512Z,70.00
2017-12-06T08:12:11.013Z,70.20
2017-12-06T08:14:38.640Z,70.50
2017-12-06T08:17:07.772Z,71.00
2017-12-06T08:19:35.270Z,70.40
2017-12-06T08:22:02.787Z,70.20
2017-12-06T08:24:31.086Z,70.30
2017-12-06T08:26:59.350Z,69.70
2017-12-06T08:29:27.695Z,69.50
2017-12-06T08:31:55.206Z,69.50
2017-12-06T08:34:28.457Z,69.50
2017-12-06T08:36:56.295Z,70.10
2017-12-06T08:39:24.565Z,68.90
2017-12-06T08:41:52.842Z,69.30
2017-12-06T08:44:21.132Z,70.00
2017-12-06T08:46:49.405Z,70.00
2017-12-06T08:49:17.681Z,70.30
2017-12-06T08:51:47.020Z,70.40
2017-12-06T08:54:14.532Z,70.50
2017-12-06T08:56:42.845Z,70.60
2017-12-06T08:59:10.469Z,70.60
2017-12-06T09:01:38.744Z,69.00
2017-12-06T09:04:07.009Z,69.00
2017-12-06T09:06:35.412Z,69.10
2017-12-06T09:09:03.877Z,69.00
2017-12-06T09:11:32.148Z,69.20
2017-12-06T09:14:00.550Z,68.70
2017-12-06T09:16:28.069Z,68.70
2017-12-06T09:18:55.582Z,68.50
2017-12-06T09:21:23.120Z,69.20
2017-12-06T09:23:50.623Z,68.90
2017-12-06T09:26:18.138Z,68.80
2017-12-06T09:28:45.693Z,69.20
2017-12-06T09:31:13.205Z,69.40
2017-12-06T09:33:40.710Z,68.70
2017-12-06T09:36:08.232Z,68.20
2017-12-06T09:38:36.499Z,66.20
2017-12-06T09:41:04.023Z,66.20
2017-12-06T09:43:31.545Z,66.90
2017-12-06T09:45:59.043Z,66.70
2017-12-06T09:48:26.546Z,68.00
2017-12-06T09:50:54.848Z,68.10
2017-12-06T09:53:22.357Z,68.10
2017-12-06T09:55:50.633Z,68.50
2017-12-06T09:58:18.158Z,68.10
2017-12-06T10:00:45.673Z,67.40
2017-12-06T10:03:13.177Z,67.50
2017-12-06T10:05:40.696Z,67.70
2017-12-06T10:08:08.200Z,67.50
2017-12-06T10:10:35.718Z,67.80
2017-12-06T10:13:03.247Z,67.80
2017-12-06T10:15:31.534Z,67.40
2017-12-06T10:17:59.038Z,67.30
2017-12-06T10:20:26.566Z,67.70
2017-12-06T10:22:54.074Z,67.50
2017-12-06T10:25:21.574Z,68.20
2017-12-06T10:27:49.205Z,67.50
2017-12-06T10:30:17.476Z,67.20
2017-12-06T10:32:45.755Z,66.20
2017-12-06T10:35:14.046Z,66.60
2017-12-06T10:37:41.565Z,66.60
2017-12-06T10:40:09.855Z,65.70
2017-12-06T10:42:38.141Z,66.00
2017-12-06T10:45:06.420Z,66.30
2017-12-06T10:47:34.684Z,66.60
2017-12-06T10:50:02.984Z,65.80
2017-12-06T10:52:30.501Z,65.80
2017-12-06T10:54:58.849Z,65.50
2017-12-06T10:57:26.365Z,65.50
2017-12-06T10:59:53.874Z,64.70
2017-12-06T11:02:21.399Z,66.00
2017-12-06T11:04:48.912Z,67.00
2017-12-06T11:07:16.421Z,67.40
2017-12-06T11:09:43.953Z,66.70
2017-12-06T11:12:11.483Z,66.60
2017-12-06T11:14:38.990Z,65.00
2017-12-06T11:17:06.508Z,65.20
2017-12-06T11:19:34.034Z,64.70
2017-12-06T11:22:02.303Z,64.60
2017-12-06T11:24:29.941Z,64.60
2017-12-06T11:26:57.459Z,65.20
2017-12-06T11:29:25.745Z,66.00
2017-12-06T11:31:53.297Z,66.00
2017-12-06T11:34:21.578Z,64.60
2017-12-06T11:36:49.082Z,64.50
2017-12-06T11:39:16.633Z,64.40
2017-12-06T11:41:44.144Z,64.40
2017-12-06T11:44:12.418Z,66.00
2017-12-06T11:46:40.046Z,66.00
2017-12-06T11:49:08.331Z,64.70
2017-12-06T11:51:36.628Z,63.50
2017-12-06T11:54:04.172Z,63.50
2017-12-06T11:56:32.450Z,64.80
2017-12-06T11:59:00.738Z,63.80
2017-12-06T12:01:28.260Z,63.70
2017-12-06T12:03:55.782Z,65.00
2017-12-06T12:06:23.297Z,66.40
2017-12-06T12:08:51.601Z,66.00
2017-12-06T12:11:19.099Z,65.90
2017-12-06T12:13:46.619Z,66.20
2017-12-06T12:16:14.148Z,66.60
2017-12-06T12:18:41.683Z,65.80
2017-12-06T12:21:09.191Z,65.40
2017-12-06T12:23:36.718Z,64.90
2017-12-06T12:26:04.993Z,63.70
2017-12-06T12:28:33.263Z,64.80
2017-12-06T12:31:01.553Z,65.80
2017-12-06T12:33:29.886Z,65.70
2017-12-06T12:35:57.392Z,65.80
2017-12-06T12:38:24.919Z,65.50
2017-12-06T12:40:52.433Z,65.30
2017-12-06T12:43:19.934Z,64.60
2017-12-06T12:45:49.158Z,65.80
2017-12-06T12:48:16.710Z,66.40
2017-12-06T12:50:44.226Z,65.40
2017-12-06T12:53:11.781Z,64.50
2017-12-06T12:55:39.288Z,63.60
2017-12-06T12:58:06.918Z,62.40
2017-12-06T13:00:35.230Z,63.90
2017-12-06T13:03:02.797Z,63.90
2017-12-06T13:05:30.304Z,63.90
2017-12-06T13:07:57.812Z,63.00
2017-12-06T13:10:25.342Z,62.70
2017-12-06T13:12:53.638Z,62.50
2017-12-06T13:15:21.143Z,62.50
2017-12-06T13:17:48.720Z,63.40
2017-12-06T13:20:17.073Z,63.90
2017-12-06T13:22:44.607Z,63.90
2017-12-06T13:25:12.120Z,63.60
2017-12-06T13:27:40.450Z,63.50
2017-12-06T13:30:08.120Z,63.50
2017-12-06T13:32:39.916Z,62.50
2017-12-06T13:35:08.177Z,63.60
2017-12-06T13:37:36.458Z,62.50
2017-12-06T13:40:04.765Z,63.80
2017-12-06T13:42:32.302Z,64.50
2017-12-06T13:45:00.629Z,64.00
2017-12-06T13:47:28.149Z,63.90
2017-12-06T13:49:55.646Z,64.20
2017-12-06T13:52:23.158Z,65.00
2017-12-06T13:54:50.692Z,64.50
2017-12-06T13:57:19.027Z,61.40
2017-12-06T13:59:46.529Z,61.40
2017-12-06T14:02:14.854Z,62.50
2017-12-06T14:04:42.368Z,62.50
2017-12-06T14:07:10.711Z,61.50
2017-12-06T14:09:38.242Z,61.40
2017-12-06T14:12:05.757Z,61.20
2017-12-06T14:14:34.050Z,63.90
2017-12-06T14:17:01.585Z,63.90
2017-12-06T14:19:29.857Z,62.70
2017-12-06T14:21:58.137Z,62.90
2017-12-06T14:24:26.519Z,63.60
2017-12-06T14:26:54.034Z,63.60
2017-12-06T14:29:21.541Z,63.60
2017-12-06T14:31:49.108Z,63.60
2017-12-06T14:34:16.783Z,65.00
2017-12-06T14:36:45.021Z,66.30
2017-12-06T14:39:13.389Z,65.80
2017-12-06T14:41:45.388Z,65.60
2017-12-06T14:44:13.780Z,65.20
2017-12-06T14:46:41.293Z,65.20
2017-12-06T14:49:09.561Z,66.10
2017-12-06T14:51:38.695Z,66.20
2017-12-06T14:54:06.222Z,66.30
2017-12-06T14:56:33.857Z,65.00
2017-12-06T14:59:01.380Z,64.80
2017-12-06T15:01:29.119Z,65.10
2017-12-06T15:03:56.636Z,65.70
2017-12-06T15:06:24.148Z,67.30
2017-12-06T15:08:51.664Z,66.90
2017-12-06T15:11:19.950Z,67.00
2017-12-06T15:13:47.455Z,67.00
2017-12-06T15:16:14.971Z,67.10
2017-12-06T15:18:42.611Z,67.30
2017-12-06T15:21:10.894Z,67.10
2017-12-06T15:23:38.397Z,67.10
2017-12-06T15:26:06.014Z,67.20
2017-12-06T15:28:33.618Z,67.80
2017-12-06T15:31:01.148Z,67.20
2017-12-06T15:33:28.801Z,67.40
2017-12-06T15:35:57.847Z,67.60
2017-12-06T15:38:25.377Z,67.70
2017-12-06T15:40:52.915Z,67.00
2017-12-06T15:43:20.417Z,66.80
2017-12-06T15:45:47.961Z,67.40
2017-12-06T15:48:15.519Z,67.80
2017-12-06T15:50:43.021Z,67.90
2017-12-06T15:53:11.302Z,67.30
2017-12-06T15:55:38.837Z,67.30
2017-12-06T15:58:06.342Z,67.80
2017-12-06T16:00:33.861Z,66.70
2017-12-06T16:03:02.138Z,68.00
2017-12-06T16:05:30.420Z,68.10
2017-12-06T16:07:57.937Z,68.00
2017-12-06T16:10:25.438Z,68.20
2017-12-06T16:12:53.057Z,68.00
2017-12-06T16:15:20.593Z,68.10
2017-12-06T16:17:48.104Z,68.10
2017-12-06T16:20:16.394Z,67.70
2017-12-06T16:22:44.665Z,66.80
2017-12-06T16:25:12.978Z,68.40
2017-12-06T16:27:40.481Z,67.80
2017-12-06T16:30:07.987Z,68.50
2017-12-06T16:32:35.516Z,68.40
2017-12-06T16:35:14.930Z,68.30
2017-12-06T16:37:43.237Z,68.30
2017-12-06T16:40:10.744Z,68.30
2017-12-06T16:42:38.240Z,67.30
2017-12-06T16:45:06.833Z,68.30
2017-12-06T16:47:35.101Z,68.50
2017-12-06T16:50:03.390Z,67.80
2017-12-06T16:52:30.973Z,67.80
2017-12-06T16:54:58.499Z,68.30
2017-12-06T16:57:26.776Z,68.30
2017-12-06T16:59:55.680Z,67.80
2017-12-06T17:02:23.184Z,67.90
2017-12-06T17:04:50.689Z,68.20
2017-12-06T17:07:18.220Z,68.80
2017-12-06T17:09:53.252Z,68.10
2017-12-06T17:12:20.809Z,68.70
2017-12-06T17:14:48.320Z,68.50
2017-12-06T17:17:15.858Z,68.50
2017-12-06T17:19:43.389Z,68.60
2017-12-06T17:22:11.716Z,69.30
2017-12-06T17:24:39.227Z,69.30
2017-12-06T17:27:07.523Z,68.50
2017-12-06T17:29:46.842Z,68.50
2017-12-06T17:32:17.778Z,68.70
2017-12-06T17:34:46.045Z,69.10
2017-12-06T17:37:14.322Z,68.70
2017-12-06T17:39:44.209Z,68.70
2017-12-06T17:42:14.066Z,68.70
2017-12-06T17:44:41.655Z,68.70
2017-12-06T17:47:09.600Z,69.30
2017-12-06T17:49:37.109Z,69.10
2017-12-06T17:52:04.608Z,69.10
2017-12-06T17:54:32.142Z,68.80
2017-12-06T17:57:00.422Z,69.70
2017-12-06T17:59:28.704Z,69.00
2017-12-06T18:01:56.242Z,69.00
2017-12-06T18:04:24.523Z,68.50
2017-12-06T18:06:52.789Z,68.80
2017-12-06T18:09:21.080Z,69.70
2017-12-06T18:11:48.594Z,69.70
2017-12-06T18:14:16.102Z,70.00
2017-12-06T18:16:44.390Z,69.10
2017-12-06T18:19:11.898Z,69.00
2017-12-06T18:21:39.516Z,69.30
2017-12-06T18:24:07.020Z,69.70
2017-12-06T18:26:34.525Z,69.50
2017-12-06T18:29:02.076Z,69.40
2017-12-06T18:31:29.580Z,69.10
2017-12-06T18:33:57.101Z,69.70
2017-12-06T18:36:25.361Z,69.10
2017-12-06T18:38:52.869Z,69.10
2017-12-06T18:41:20.398Z,69.30
2017-12-06T18:43:47.910Z,69.80
2017-12-06T18:46:16.185Z,70.00
2017-12-06T18:48:44.485Z,70.60
2017-12-06T18:51:11.987Z,70.50
2017-12-06T18:53:39.497Z,70.30
2017-12-06T18:56:07.021Z,70.60
2017-12-06T18:58:34.528Z,70.40
2017-12-06T19:01:02.048Z,69.90
2017-12-06T19:03:30.345Z,69.70
2017-12-06T19:05:57.852Z,69.70
2017-12-06T19:08:25.364Z,69.30
2017-12-06T19:10:52.928Z,69.80
2017-12-06T19:13:20.444Z,69.80
2017-12-06T19:15:47.977Z,70.00
2017-12-06T19:18:15.533Z,70.50
2017-12-06T19:20:43.075Z,70.50
2017-12-06T19:23:10.605Z,70.60
2017-12-06T19:25:38.120Z,70.70
2017-12-06T19:28:05.672Z,70.40
2017-12-06T19:30:33.187Z,70.30
2017-12-06T19:33:00.785Z,70.50
2017-12-06T19:35:28.289Z,70.30
2017-12-06T19:37:55.820Z,70.60
2017-12-06T19:40:24.109Z,71.00
2017-12-06T19:42:51.662Z,71.00
2017-12-06T19:45:20.749Z,70.00
2017-12-06T19:47:50.581Z,70.50
2017-12-06T19:50:18.622Z,70.40
2017-12-06T19:52:46.894Z,70.60
2017-12-06T19:55:15.212Z,70.80
2017-12-06T19:57:42.724Z,70.50
2017-12-06T20:00:11.003Z,70.40
2017-12-06T20:02:39.321Z,70.10
2017-12-06T20:05:06.847Z,70.00
2017-12-06T20:07:35.130Z,70.10
2017-12-06T20:10:02.653Z,70.10
2017-12-06T20:12:30.161Z,69.90
2017-12-06T20:14:57.698Z,70.30
2017-12-06T20:17:25.245Z,70.50
2017-12-06T20:19:52.749Z,70.50
2017-12-06T20:22:21.052Z,70.20
2017-12-06T20:24:48.583Z,70.20
2017-12-06T20:27:16.887Z,70.10
2017-12-06T20:29:44.390Z,70.10
2017-12-06T20:32:11.890Z,70.10
2017-12-06T20:34:39.446Z,70.00
2017-12-06T20:37:06.952Z,70.00
2017-12-06T20:39:34.457Z,70.20
2017-12-06T20:42:02.007Z,70.40
2017-12-06T20:44:29.538Z,70.50
2017-12-06T20:46:57.045Z,70.40
2017-12-06T20:49:24.576Z,70.30
2017-12-06T20:51:52.845Z,69.70
2017-12-06T20:56:54.120Z,70.00
2017-12-06T20:59:25.509Z,69.80
2017-12-06T21:01:53.008Z,69.80
2017-12-06T21:04:20.562Z,69.90
2017-12-06T21:06:48.125Z,69.80
2017-12-06T21:09:15.630Z,69.70
2017-12-06T21:11:43.290Z,69.80
2017-12-06T21:14:10.791Z,69.90
2017-12-06T21:16:38.337Z,69.70
2017-12-06T21:19:06.690Z,69.70
2017-12-06T21:21:34.210Z,69.60
2017-12-06T21:24:01.834Z,69.70
2017-12-06T21:26:29.373Z,69.90
2017-12-06T21:28:56.916Z,69.90
2017-12-06T21:31:24.460Z,70.00
2017-12-06T21:33:51.965Z,70.00
2017-12-06T21:36:19.480Z,69.70
2017-12-06T21:38:47.805Z,69.70
2017-12-06T21:41:15.328Z,69.70
2017-12-06T21:43:42.860Z,69.60
2017-12-06T21:46:10.392Z,69.60
2017-12-06T21:48:38.703Z,69.20
2017-12-06T21:51:06.235Z,69.10
2017-12-06T21:53:33.802Z,69.50
2017-12-06T21:56:01.353Z,69.60
2017-12-06T21:58:29.655Z,69.70
2017-12-06T22:00:57.225Z,69.70
2017-12-06T22:03:24.728Z,69.80
2017-12-06T22:05:53.094Z,69.80
2017-12-06T22:08:20.640Z,69.70
2017-12-06T22:10:48.996Z,69.70
2017-12-06T22:13:16.504Z,69.70
2017-12-06T22:15:44.780Z,69.90
2017-12-06T22:18:13.140Z,69.80
2017-12-06T22:20:41.470Z,69.80
2017-12-06T22:23:08.974Z,69.80
2017-12-06T22:25:36.565Z,69.50
2017-12-06T22:28:04.852Z,69.40
2017-12-06T22:30:32.393Z,69.40
2017-12-06T22:32:59.904Z,69.30
2017-12-06T22:35:27.436Z,69.30
2017-12-06T22:37:54.981Z,69.40
2017-12-06T22:40:22.488Z,69.50
2017-12-06T22:42:50.023Z,69.50
2017-12-06T22:45:17.553Z,69.40
2017-12-06T22:47:45.113Z,69.50
2017-12-06T22:50:12.744Z,69.50
2017-12-06T22:52:41.138Z,69.40
2017-12-06T22:55:08.641Z,69.40
2017-12-06T22:57:36.185Z,69.40
2017-12-06T23:00:03.697Z,69.40
2017-12-06T23:02:31.207Z,69.30
2017-12-06T23:04:58.769Z,69.30
2017-12-06T23:07:26.318Z,69.50
2017-12-06T23:09:56.502Z,69.30
2017-12-06T23:12:24.022Z,69.50
2017-12-06T23:14:52.336Z,69.30
2017-12-06T23:17:19.846Z,69.20
2017-12-06T23:19:47.449Z,69.50
2017-12-06T23:22:14.977Z,69.50
2017-12-06T23:24:42.521Z,69.60
2017-12-06T23:27:10.029Z,69.40
2017-12-06T23:29:37.630Z,68.90
2017-12-06T23:32:05.101Z,69.30
2017-12-06T23:34:32.641Z,69.10
2017-12-06T23:37:00.189Z,69.10
2017-12-06T23:39:28.478Z,69.40
2017-12-06T23:41:56.018Z,69.30
2017-12-06T23:44:24.460Z,69.30
2017-12-06T23:46:52.005Z,69.30
2017-12-06T23:49:19.561Z,69.30
2017-12-06T23:51:47.834Z,69.30
2017-12-06T23:54:16.147Z,69.20
2017-12-06T23:56:43.655Z,69.30
2017-12-06T23:59:11.369Z,69.20
